sensor_id;sensor_type;location;lat;lon;timestamp;P1;durP1;ratioP1;P2;durP2;ratioP2
78796;SDS011;68145;52.514;13.460;2023-04-06T00:02:13;8.60;;;6.15;;
78796;SDS011;68145;52.514;13.460;2023-04-06T00:04:39;9.32;;;6.20;;
78796;SDS011;68145;52.514;13.460;2023-04-06T00:07:05;8.68;;;5.75;;
78796;SDS011;68145;52.514;13.460;2023-04-06T00:09:31;9.35;;;5.97;;
78796;SDS011;68145;52.514;13.460;2023-04-06T00:11:57;9.27;;;6.18;;
78796;SDS011;68145;52.514;13.460;2023-04-06T00:14:23;8.82;;;6.22;;
78796;SDS011;68145;52.514;13.460;2023-04-06T00:16:50;7.57;;;5.65;;
78796;SDS011;68145;52.514;13.460;2023-04-06T00:19:16;11.88;;;6.05;;
78796;SDS011;68145;52.514;13.460;2023-04-06T00:21:42;8.60;;;6.07;;
78796;SDS011;68145;52.514;13.460;2023-04-06T00:24:08;8.38;;;5.75;;
78796;SDS011;68145;52.514;13.460;2023-04-06T00:26:34;8.57;;;6.00;;
78796;SDS011;68145;52.514;13.460;2023-04-06T00:29:00;10.73;;;5.78;;
78796;SDS011;68145;52.514;13.460;2023-04-06T00:31:26;8.70;;;5.55;;
78796;SDS011;68145;52.514;13.460;2023-04-06T00:33:52;7.45;;;6.22;;
78796;SDS011;68145;52.514;13.460;2023-04-06T00:36:18;9.57;;;6.07;;
78796;SDS011;68145;52.514;13.460;2023-04-06T00:38:45;11.35;;;6.35;;
78796;SDS011;68145;52.514;13.460;2023-04-06T00:41:11;8.07;;;5.78;;
78796;SDS011;68145;52.514;13.460;2023-04-06T00:43:37;11.70;;;6.78;;
78796;SDS011;68145;52.514;13.460;2023-04-06T00:46:03;9.10;;;5.70;;
78796;SDS011;68145;52.514;13.460;2023-04-06T00:48:30;8.32;;;5.47;;
78796;SDS011;68145;52.514;13.460;2023-04-06T00:50:57;8.52;;;5.32;;
78796;SDS011;68145;52.514;13.460;2023-04-06T00:53:24;7.32;;;5.15;;
78796;SDS011;68145;52.514;13.460;2023-04-06T00:55:50;9.23;;;5.70;;
78796;SDS011;68145;52.514;13.460;2023-04-06T00:58:16;8.73;;;5.63;;
78796;SDS011;68145;52.514;13.460;2023-04-06T01:00:42;11.48;;;5.95;;
78796;SDS011;68145;52.514;13.460;2023-04-06T01:03:11;7.30;;;5.63;;
78796;SDS011;68145;52.514;13.460;2023-04-06T01:05:38;8.35;;;5.88;;
78796;SDS011;68145;52.514;13.460;2023-04-06T01:08:08;14.52;;;6.07;;
78796;SDS011;68145;52.514;13.460;2023-04-06T01:10:34;9.85;;;5.38;;
78796;SDS011;68145;52.514;13.460;2023-04-06T01:13:00;9.55;;;6.05;;
78796;SDS011;68145;52.514;13.460;2023-04-06T01:15:27;7.93;;;5.68;;
78796;SDS011;68145;52.514;13.460;2023-04-06T01:17:54;7.95;;;5.43;;
78796;SDS011;68145;52.514;13.460;2023-04-06T01:20:20;11.60;;;6.15;;
78796;SDS011;68145;52.514;13.460;2023-04-06T01:22:46;11.85;;;5.88;;
78796;SDS011;68145;52.514;13.460;2023-04-06T01:25:12;8.77;;;5.70;;
78796;SDS011;68145;52.514;13.460;2023-04-06T01:27:38;9.77;;;6.07;;
78796;SDS011;68145;52.514;13.460;2023-04-06T01:30:05;9.50;;;5.72;;
78796;SDS011;68145;52.514;13.460;2023-04-06T01:32:31;11.57;;;5.68;;
78796;SDS011;68145;52.514;13.460;2023-04-06T01:34:57;10.07;;;6.60;;
78796;SDS011;68145;52.514;13.460;2023-04-06T01:37:24;6.95;;;6.00;;
78796;SDS011;68145;52.514;13.460;2023-04-06T01:39:50;8.43;;;6.07;;
78796;SDS011;68145;52.514;13.460;2023-04-06T01:42:16;7.72;;;5.55;;
78796;SDS011;68145;52.514;13.460;2023-04-06T01:44:42;8.88;;;5.30;;
78796;SDS011;68145;52.514;13.460;2023-04-06T01:47:08;7.25;;;5.20;;
78796;SDS011;68145;52.514;13.460;2023-04-06T01:49:34;7.72;;;5.70;;
78796;SDS011;68145;52.514;13.460;2023-04-06T01:52:00;8.10;;;5.18;;
78796;SDS011;68145;52.514;13.460;2023-04-06T01:54:26;8.60;;;5.60;;
78796;SDS011;68145;52.514;13.460;2023-04-06T01:56:52;8.98;;;5.90;;
78796;SDS011;68145;52.514;13.460;2023-04-06T01:59:19;9.55;;;5.97;;
78796;SDS011;68145;52.514;13.460;2023-04-06T02:01:45;8.80;;;5.82;;
78796;SDS011;68145;52.514;13.460;2023-04-06T02:04:11;7.68;;;5.30;;
78796;SDS011;68145;52.514;13.460;2023-04-06T02:06:39;7.88;;;5.63;;
78796;SDS011;68145;52.514;13.460;2023-04-06T02:09:05;9.98;;;6.35;;
78796;SDS011;68145;52.514;13.460;2023-04-06T02:11:31;10.07;;;5.85;;
78796;SDS011;68145;52.514;13.460;2023-04-06T02:13:57;11.70;;;6.70;;
78796;SDS011;68145;52.514;13.460;2023-04-06T02:16:25;10.07;;;6.18;;
78796;SDS011;68145;52.514;13.460;2023-04-06T02:18:51;12.18;;;6.18;;
78796;SDS011;68145;52.514;13.460;2023-04-06T02:21:17;8.48;;;6.32;;
78796;SDS011;68145;52.514;13.460;2023-04-06T02:23:45;9.05;;;5.85;;
78796;SDS011;68145;52.514;13.460;2023-04-06T02:26:12;10.75;;;6.32;;
78796;SDS011;68145;52.514;13.460;2023-04-06T02:28:38;11.90;;;6.28;;
78796;SDS011;68145;52.514;13.460;2023-04-06T02:31:04;9.88;;;6.13;;
78796;SDS011;68145;52.514;13.460;2023-04-06T02:33:31;9.25;;;6.15;;
78796;SDS011;68145;52.514;13.460;2023-04-06T02:35:57;8.77;;;5.82;;
78796;SDS011;68145;52.514;13.460;2023-04-06T02:38:23;8.18;;;5.78;;
78796;SDS011;68145;52.514;13.460;2023-04-06T02:40:49;9.40;;;6.20;;
78796;SDS011;68145;52.514;13.460;2023-04-06T02:43:15;10.30;;;6.25;;
78796;SDS011;68145;52.514;13.460;2023-04-06T02:45:42;11.50;;;6.68;;
78796;SDS011;68145;52.514;13.460;2023-04-06T02:48:08;10.48;;;6.72;;
78796;SDS011;68145;52.514;13.460;2023-04-06T02:50:34;11.95;;;7.25;;
78796;SDS011;68145;52.514;13.460;2023-04-06T02:53:01;10.02;;;6.65;;
78796;SDS011;68145;52.514;13.460;2023-04-06T02:55:27;10.52;;;7.13;;
78796;SDS011;68145;52.514;13.460;2023-04-06T02:57:53;9.30;;;7.20;;
78796;SDS011;68145;52.514;13.460;2023-04-06T03:00:19;10.45;;;7.80;;
78796;SDS011;68145;52.514;13.460;2023-04-06T03:02:45;8.48;;;6.90;;
78796;SDS011;68145;52.514;13.460;2023-04-06T03:05:12;9.43;;;7.40;;
78796;SDS011;68145;52.514;13.460;2023-04-06T03:07:38;8.50;;;6.70;;
78796;SDS011;68145;52.514;13.460;2023-04-06T03:10:04;10.32;;;6.68;;
78796;SDS011;68145;52.514;13.460;2023-04-06T03:12:30;10.23;;;6.90;;
78796;SDS011;68145;52.514;13.460;2023-04-06T03:14:56;9.75;;;6.70;;
78796;SDS011;68145;52.514;13.460;2023-04-06T03:17:22;10.93;;;6.93;;
78796;SDS011;68145;52.514;13.460;2023-04-06T03:19:48;11.95;;;7.22;;
78796;SDS011;68145;52.514;13.460;2023-04-06T03:22:14;12.77;;;7.35;;
78796;SDS011;68145;52.514;13.460;2023-04-06T03:24:41;9.60;;;6.65;;
78796;SDS011;68145;52.514;13.460;2023-04-06T03:27:07;11.30;;;6.90;;
78796;SDS011;68145;52.514;13.460;2023-04-06T03:29:33;10.60;;;6.95;;
78796;SDS011;68145;52.514;13.460;2023-04-06T03:31:59;10.00;;;6.90;;
78796;SDS011;68145;52.514;13.460;2023-04-06T03:34:25;10.90;;;6.97;;
78796;SDS011;68145;52.514;13.460;2023-04-06T03:36:51;9.95;;;6.65;;
78796;SDS011;68145;52.514;13.460;2023-04-06T03:39:17;9.57;;;7.40;;
78796;SDS011;68145;52.514;13.460;2023-04-06T03:41:44;10.88;;;7.45;;
78796;SDS011;68145;52.514;13.460;2023-04-06T03:44:10;10.23;;;6.68;;
78796;SDS011;68145;52.514;13.460;2023-04-06T03:46:36;9.65;;;7.25;;
78796;SDS011;68145;52.514;13.460;2023-04-06T03:49:02;8.52;;;6.80;;
78796;SDS011;68145;52.514;13.460;2023-04-06T03:51:28;9.27;;;7.07;;
78796;SDS011;68145;52.514;13.460;2023-04-06T03:53:54;10.13;;;7.45;;
78796;SDS011;68145;52.514;13.460;2023-04-06T03:56:20;10.00;;;7.20;;
78796;SDS011;68145;52.514;13.460;2023-04-06T03:58:46;10.10;;;7.60;;
78796;SDS011;68145;52.514;13.460;2023-04-06T04:01:16;9.40;;;7.57;;
78796;SDS011;68145;52.514;13.460;2023-04-06T04:03:43;11.57;;;7.43;;
78796;SDS011;68145;52.514;13.460;2023-04-06T04:06:09;13.13;;;7.32;;
78796;SDS011;68145;52.514;13.460;2023-04-06T04:08:35;13.93;;;7.82;;
78796;SDS011;68145;52.514;13.460;2023-04-06T04:11:01;12.65;;;7.35;;
78796;SDS011;68145;52.514;13.460;2023-04-06T04:13:27;11.73;;;7.85;;
78796;SDS011;68145;52.514;13.460;2023-04-06T04:15:53;11.32;;;7.75;;
78796;SDS011;68145;52.514;13.460;2023-04-06T04:18:19;9.30;;;6.97;;
78796;SDS011;68145;52.514;13.460;2023-04-06T04:20:45;11.45;;;7.50;;
78796;SDS011;68145;52.514;13.460;2023-04-06T04:23:12;10.52;;;7.18;;
78796;SDS011;68145;52.514;13.460;2023-04-06T04:25:38;15.00;;;7.53;;
78796;SDS011;68145;52.514;13.460;2023-04-06T04:28:04;11.30;;;7.07;;
78796;SDS011;68145;52.514;13.460;2023-04-06T04:30:31;12.75;;;7.25;;
78796;SDS011;68145;52.514;13.460;2023-04-06T04:32:57;11.63;;;6.93;;
78796;SDS011;68145;52.514;13.460;2023-04-06T04:35:23;9.50;;;6.97;;
78796;SDS011;68145;52.514;13.460;2023-04-06T04:37:49;10.18;;;6.60;;
78796;SDS011;68145;52.514;13.460;2023-04-06T04:40:15;10.93;;;7.07;;
78796;SDS011;68145;52.514;13.460;2023-04-06T04:42:42;9.20;;;6.15;;
78796;SDS011;68145;52.514;13.460;2023-04-06T04:45:08;12.48;;;6.75;;
78796;SDS011;68145;52.514;13.460;2023-04-06T04:47:34;11.27;;;6.82;;
78796;SDS011;68145;52.514;13.460;2023-04-06T04:50:00;11.15;;;6.50;;
78796;SDS011;68145;52.514;13.460;2023-04-06T04:52:27;14.30;;;6.65;;
78796;SDS011;68145;52.514;13.460;2023-04-06T04:54:53;11.23;;;6.63;;
78796;SDS011;68145;52.514;13.460;2023-04-06T04:57:19;13.05;;;7.03;;
78796;SDS011;68145;52.514;13.460;2023-04-06T04:59:45;11.60;;;6.50;;
78796;SDS011;68145;52.514;13.460;2023-04-06T05:02:11;10.20;;;7.38;;
78796;SDS011;68145;52.514;13.460;2023-04-06T05:04:37;10.32;;;6.57;;
78796;SDS011;68145;52.514;13.460;2023-04-06T05:07:07;11.02;;;6.82;;
78796;SDS011;68145;52.514;13.460;2023-04-06T05:09:33;10.75;;;7.10;;
78796;SDS011;68145;52.514;13.460;2023-04-06T05:12:00;9.60;;;6.72;;
78796;SDS011;68145;52.514;13.460;2023-04-06T05:14:26;9.55;;;6.13;;
78796;SDS011;68145;52.514;13.460;2023-04-06T05:16:53;11.00;;;6.80;;
78796;SDS011;68145;52.514;13.460;2023-04-06T05:19:19;11.45;;;6.80;;
78796;SDS011;68145;52.514;13.460;2023-04-06T05:21:45;10.57;;;6.47;;
78796;SDS011;68145;52.514;13.460;2023-04-06T05:24:11;10.07;;;6.20;;
78796;SDS011;68145;52.514;13.460;2023-04-06T05:26:37;9.27;;;6.15;;
78796;SDS011;68145;52.514;13.460;2023-04-06T05:29:03;8.23;;;6.60;;
78796;SDS011;68145;52.514;13.460;2023-04-06T05:31:30;9.43;;;6.50;;
78796;SDS011;68145;52.514;13.460;2023-04-06T05:33:56;14.60;;;7.05;;
78796;SDS011;68145;52.514;13.460;2023-04-06T05:36:22;9.07;;;5.80;;
78796;SDS011;68145;52.514;13.460;2023-04-06T05:38:48;11.55;;;6.72;;
78796;SDS011;68145;52.514;13.460;2023-04-06T05:41:15;11.88;;;7.18;;
78796;SDS011;68145;52.514;13.460;2023-04-06T05:43:41;11.60;;;6.60;;
78796;SDS011;68145;52.514;13.460;2023-04-06T05:46:07;11.93;;;6.47;;
78796;SDS011;68145;52.514;13.460;2023-04-06T05:48:34;12.20;;;6.05;;
78796;SDS011;68145;52.514;13.460;2023-04-06T05:51:00;11.98;;;6.15;;
78796;SDS011;68145;52.514;13.460;2023-04-06T05:53:27;18.58;;;7.60;;
78796;SDS011;68145;52.514;13.460;2023-04-06T05:55:54;9.13;;;6.38;;
78796;SDS011;68145;52.514;13.460;2023-04-06T05:58:21;9.80;;;6.15;;
78796;SDS011;68145;52.514;13.460;2023-04-06T06:00:47;13.25;;;6.30;;
78796;SDS011;68145;52.514;13.460;2023-04-06T06:03:13;9.45;;;6.80;;
78796;SDS011;68145;52.514;13.460;2023-04-06T06:05:40;15.80;;;7.10;;
78796;SDS011;68145;52.514;13.460;2023-04-06T06:08:06;16.98;;;6.05;;
78796;SDS011;68145;52.514;13.460;2023-04-06T06:10:32;16.73;;;7.00;;
78796;SDS011;68145;52.514;13.460;2023-04-06T06:12:58;13.50;;;7.25;;
78796;SDS011;68145;52.514;13.460;2023-04-06T06:15:24;10.02;;;6.70;;
78796;SDS011;68145;52.514;13.460;2023-04-06T06:17:51;10.10;;;6.32;;
78796;SDS011;68145;52.514;13.460;2023-04-06T06:20:17;9.80;;;6.97;;
78796;SDS011;68145;52.514;13.460;2023-04-06T06:22:43;13.57;;;6.90;;
78796;SDS011;68145;52.514;13.460;2023-04-06T06:25:09;11.68;;;6.80;;
78796;SDS011;68145;52.514;13.460;2023-04-06T06:27:35;14.52;;;5.90;;
78796;SDS011;68145;52.514;13.460;2023-04-06T06:30:02;12.00;;;6.20;;
78796;SDS011;68145;52.514;13.460;2023-04-06T06:32:28;9.93;;;6.50;;
78796;SDS011;68145;52.514;13.460;2023-04-06T06:34:54;8.57;;;5.95;;
78796;SDS011;68145;52.514;13.460;2023-04-06T06:37:20;10.20;;;6.85;;
78796;SDS011;68145;52.514;13.460;2023-04-06T06:39:46;14.15;;;7.35;;
78796;SDS011;68145;52.514;13.460;2023-04-06T06:42:12;12.75;;;6.38;;
78796;SDS011;68145;52.514;13.460;2023-04-06T06:44:38;13.30;;;7.78;;
78796;SDS011;68145;52.514;13.460;2023-04-06T06:47:04;11.20;;;6.15;;
78796;SDS011;68145;52.514;13.460;2023-04-06T06:49:30;11.40;;;6.97;;
78796;SDS011;68145;52.514;13.460;2023-04-06T06:51:56;11.18;;;6.95;;
78796;SDS011;68145;52.514;13.460;2023-04-06T06:54:22;16.83;;;7.22;;
78796;SDS011;68145;52.514;13.460;2023-04-06T06:56:48;10.75;;;7.28;;
78796;SDS011;68145;52.514;13.460;2023-04-06T06:59:14;13.25;;;6.68;;
78796;SDS011;68145;52.514;13.460;2023-04-06T07:01:41;11.32;;;6.78;;
78796;SDS011;68145;52.514;13.460;2023-04-06T07:04:07;11.95;;;7.32;;
78796;SDS011;68145;52.514;13.460;2023-04-06T07:06:36;12.93;;;6.20;;
78796;SDS011;68145;52.514;13.460;2023-04-06T07:09:02;12.65;;;6.95;;
78796;SDS011;68145;52.514;13.460;2023-04-06T07:11:29;9.82;;;6.53;;
78796;SDS011;68145;52.514;13.460;2023-04-06T07:13:55;13.65;;;6.82;;
78796;SDS011;68145;52.514;13.460;2023-04-06T07:16:21;12.45;;;6.72;;
78796;SDS011;68145;52.514;13.460;2023-04-06T07:18:48;13.60;;;6.18;;
78796;SDS011;68145;52.514;13.460;2023-04-06T07:21:14;9.30;;;6.72;;
78796;SDS011;68145;52.514;13.460;2023-04-06T07:23:41;13.23;;;6.32;;
78796;SDS011;68145;52.514;13.460;2023-04-06T07:26:07;9.45;;;5.82;;
78796;SDS011;68145;52.514;13.460;2023-04-06T07:28:33;12.68;;;5.57;;
78796;SDS011;68145;52.514;13.460;2023-04-06T07:30:59;7.32;;;5.15;;
78796;SDS011;68145;52.514;13.460;2023-04-06T07:33:26;13.38;;;5.50;;
78796;SDS011;68145;52.514;13.460;2023-04-06T07:35:55;14.57;;;7.70;;
78796;SDS011;68145;52.514;13.460;2023-04-06T07:38:21;13.60;;;6.07;;
78796;SDS011;68145;52.514;13.460;2023-04-06T07:40:47;14.18;;;5.60;;
78796;SDS011;68145;52.514;13.460;2023-04-06T07:43:14;10.52;;;5.68;;
78796;SDS011;68145;52.514;13.460;2023-04-06T07:45:40;7.28;;;4.95;;
78796;SDS011;68145;52.514;13.460;2023-04-06T07:48:07;13.05;;;5.35;;
78796;SDS011;68145;52.514;13.460;2023-04-06T07:50:33;11.20;;;6.32;;
78796;SDS011;68145;52.514;13.460;2023-04-06T07:52:59;11.38;;;6.43;;
78796;SDS011;68145;52.514;13.460;2023-04-06T07:55:26;12.48;;;7.30;;
78796;SDS011;68145;52.514;13.460;2023-04-06T07:57:52;15.18;;;7.32;;
78796;SDS011;68145;52.514;13.460;2023-04-06T08:00:18;16.15;;;8.07;;
78796;SDS011;68145;52.514;13.460;2023-04-06T08:02:45;14.68;;;8.93;;
78796;SDS011;68145;52.514;13.460;2023-04-06T08:05:11;15.20;;;8.57;;
78796;SDS011;68145;52.514;13.460;2023-04-06T08:07:37;16.10;;;8.75;;
78796;SDS011;68145;52.514;13.460;2023-04-06T08:10:03;13.02;;;7.30;;
78796;SDS011;68145;52.514;13.460;2023-04-06T08:12:29;15.15;;;7.85;;
78796;SDS011;68145;52.514;13.460;2023-04-06T08:14:55;12.35;;;6.82;;
78796;SDS011;68145;52.514;13.460;2023-04-06T08:17:23;12.93;;;6.15;;
78796;SDS011;68145;52.514;13.460;2023-04-06T08:19:49;7.38;;;4.45;;
78796;SDS011;68145;52.514;13.460;2023-04-06T08:22:15;6.40;;;4.72;;
78796;SDS011;68145;52.514;13.460;2023-04-06T08:24:41;5.95;;;4.22;;
78796;SDS011;68145;52.514;13.460;2023-04-06T08:27:07;5.80;;;4.20;;
78796;SDS011;68145;52.514;13.460;2023-04-06T08:29:33;6.30;;;3.58;;
78796;SDS011;68145;52.514;13.460;2023-04-06T08:31:59;6.20;;;3.70;;
78796;SDS011;68145;52.514;13.460;2023-04-06T08:34:29;5.65;;;3.50;;
78796;SDS011;68145;52.514;13.460;2023-04-06T08:36:56;5.55;;;3.40;;
78796;SDS011;68145;52.514;13.460;2023-04-06T08:39:22;8.13;;;3.88;;
78796;SDS011;68145;52.514;13.460;2023-04-06T08:41:51;5.30;;;3.08;;
78796;SDS011;68145;52.514;13.460;2023-04-06T08:44:17;7.47;;;3.55;;
78796;SDS011;68145;52.514;13.460;2023-04-06T08:46:44;7.18;;;3.33;;
78796;SDS011;68145;52.514;13.460;2023-04-06T08:49:10;6.03;;;3.47;;
78796;SDS011;68145;52.514;13.460;2023-04-06T08:51:36;6.05;;;3.95;;
78796;SDS011;68145;52.514;13.460;2023-04-06T08:54:03;7.78;;;3.95;;
78796;SDS011;68145;52.514;13.460;2023-04-06T08:56:30;6.82;;;3.42;;
78796;SDS011;68145;52.514;13.460;2023-04-06T08:58:56;4.20;;;2.88;;
78796;SDS011;68145;52.514;13.460;2023-04-06T09:01:25;6.03;;;3.10;;
78796;SDS011;68145;52.514;13.460;2023-04-06T09:03:52;5.50;;;2.95;;
78796;SDS011;68145;52.514;13.460;2023-04-06T09:06:21;6.03;;;3.10;;
78796;SDS011;68145;52.514;13.460;2023-04-06T09:08:47;6.10;;;3.00;;
78796;SDS011;68145;52.514;13.460;2023-04-06T09:11:14;5.03;;;3.08;;
78796;SDS011;68145;52.514;13.460;2023-04-06T09:13:48;5.88;;;3.00;;
78796;SDS011;68145;52.514;13.460;2023-04-06T09:16:14;5.82;;;3.00;;
78796;SDS011;68145;52.514;13.460;2023-04-06T09:18:41;3.72;;;2.70;;
78796;SDS011;68145;52.514;13.460;2023-04-06T09:21:07;4.78;;;3.05;;
78796;SDS011;68145;52.514;13.460;2023-04-06T09:23:33;5.70;;;3.40;;
78796;SDS011;68145;52.514;13.460;2023-04-06T09:26:17;5.22;;;2.72;;
78796;SDS011;68145;52.514;13.460;2023-04-06T09:28:49;9.63;;;3.53;;
78796;SDS011;68145;52.514;13.460;2023-04-06T09:31:16;5.55;;;3.15;;
78796;SDS011;68145;52.514;13.460;2023-04-06T09:33:44;6.50;;;3.13;;
78796;SDS011;68145;52.514;13.460;2023-04-06T09:36:11;6.80;;;2.83;;
78796;SDS011;68145;52.514;13.460;2023-04-06T09:38:51;5.70;;;2.85;;
78796;SDS011;68145;52.514;13.460;2023-04-06T09:41:24;6.80;;;2.95;;
78796;SDS011;68145;52.514;13.460;2023-04-06T09:44:03;5.05;;;3.10;;
78796;SDS011;68145;52.514;13.460;2023-04-06T09:46:34;6.15;;;3.25;;
78796;SDS011;68145;52.514;13.460;2023-04-06T09:49:03;4.47;;;2.60;;
78796;SDS011;68145;52.514;13.460;2023-04-06T09:51:30;4.63;;;2.80;;
78796;SDS011;68145;52.514;13.460;2023-04-06T09:53:57;4.90;;;2.35;;
78796;SDS011;68145;52.514;13.460;2023-04-06T09:56:27;6.10;;;2.42;;
78796;SDS011;68145;52.514;13.460;2023-04-06T09:59:21;4.75;;;2.92;;
78796;SDS011;68145;52.514;13.460;2023-04-06T10:01:51;4.07;;;2.60;;
78796;SDS011;68145;52.514;13.460;2023-04-06T10:07:02;5.68;;;2.88;;
78796;SDS011;68145;52.514;13.460;2023-04-06T10:09:29;4.72;;;2.53;;
78796;SDS011;68145;52.514;13.460;2023-04-06T10:12:02;5.32;;;2.85;;
78796;SDS011;68145;52.514;13.460;2023-04-06T10:14:28;7.38;;;2.67;;
78796;SDS011;68145;52.514;13.460;2023-04-06T10:16:55;7.30;;;2.70;;
78796;SDS011;68145;52.514;13.460;2023-04-06T10:19:23;6.03;;;3.25;;
78796;SDS011;68145;52.514;13.460;2023-04-06T10:21:51;4.60;;;2.45;;
78796;SDS011;68145;52.514;13.460;2023-04-06T10:24:20;7.28;;;3.20;;
78796;SDS011;68145;52.514;13.460;2023-04-06T10:27:00;6.15;;;2.50;;
78796;SDS011;68145;52.514;13.460;2023-04-06T10:31:52;4.57;;;2.33;;
78796;SDS011;68145;52.514;13.460;2023-04-06T10:34:20;3.38;;;2.17;;
78796;SDS011;68145;52.514;13.460;2023-04-06T10:36:46;3.65;;;2.40;;
78796;SDS011;68145;52.514;13.460;2023-04-06T10:39:12;5.57;;;2.42;;
78796;SDS011;68145;52.514;13.460;2023-04-06T10:41:42;6.82;;;2.13;;
78796;SDS011;68145;52.514;13.460;2023-04-06T10:44:30;5.53;;;2.67;;
78796;SDS011;68145;52.514;13.460;2023-04-06T10:46:56;4.72;;;2.63;;
78796;SDS011;68145;52.514;13.460;2023-04-06T10:49:24;4.15;;;2.65;;
78796;SDS011;68145;52.514;13.460;2023-04-06T10:51:51;3.95;;;2.20;;
78796;SDS011;68145;52.514;13.460;2023-04-06T10:54:19;5.70;;;2.30;;
78796;SDS011;68145;52.514;13.460;2023-04-06T10:56:47;5.15;;;2.10;;
78796;SDS011;68145;52.514;13.460;2023-04-06T10:59:14;3.45;;;2.50;;
78796;SDS011;68145;52.514;13.460;2023-04-06T11:01:44;6.00;;;2.55;;
78796;SDS011;68145;52.514;13.460;2023-04-06T11:04:15;4.32;;;2.33;;
78796;SDS011;68145;52.514;13.460;2023-04-06T11:06:41;5.50;;;2.80;;
78796;SDS011;68145;52.514;13.460;2023-04-06T11:09:11;8.00;;;2.38;;
78796;SDS011;68145;52.514;13.460;2023-04-06T11:11:48;4.07;;;2.40;;
78796;SDS011;68145;52.514;13.460;2023-04-06T11:14:14;3.80;;;2.70;;
78796;SDS011;68145;52.514;13.460;2023-04-06T11:16:40;3.13;;;1.95;;
78796;SDS011;68145;52.514;13.460;2023-04-06T11:19:06;7.47;;;2.30;;
78796;SDS011;68145;52.514;13.460;2023-04-06T11:21:40;4.13;;;2.58;;
78796;SDS011;68145;52.514;13.460;2023-04-06T11:24:12;3.78;;;2.50;;
78796;SDS011;68145;52.514;13.460;2023-04-06T11:26:39;3.15;;;2.30;;
78796;SDS011;68145;52.514;13.460;2023-04-06T11:29:05;4.72;;;2.20;;
78796;SDS011;68145;52.514;13.460;2023-04-06T11:31:37;4.63;;;2.28;;
78796;SDS011;68145;52.514;13.460;2023-04-06T11:34:08;5.43;;;2.10;;
78796;SDS011;68145;52.514;13.460;2023-04-06T11:36:35;4.43;;;2.50;;
78796;SDS011;68145;52.514;13.460;2023-04-06T11:39:02;4.15;;;2.20;;
78796;SDS011;68145;52.514;13.460;2023-04-06T11:41:29;4.63;;;2.83;;
78796;SDS011;68145;52.514;13.460;2023-04-06T11:46:22;4.97;;;2.88;;
78796;SDS011;68145;52.514;13.460;2023-04-06T11:48:51;5.22;;;2.65;;
78796;SDS011;68145;52.514;13.460;2023-04-06T11:51:23;4.38;;;2.45;;
78796;SDS011;68145;52.514;13.460;2023-04-06T11:53:49;4.03;;;2.22;;
78796;SDS011;68145;52.514;13.460;2023-04-06T11:56:22;5.22;;;2.40;;
78796;SDS011;68145;52.514;13.460;2023-04-06T11:58:49;4.43;;;2.30;;
78796;SDS011;68145;52.514;13.460;2023-04-06T12:01:15;5.40;;;2.38;;
78796;SDS011;68145;52.514;13.460;2023-04-06T12:03:41;6.03;;;2.55;;
78796;SDS011;68145;52.514;13.460;2023-04-06T12:06:07;4.03;;;2.50;;
78796;SDS011;68145;52.514;13.460;2023-04-06T12:08:34;4.10;;;2.90;;
78796;SDS011;68145;52.514;13.460;2023-04-06T12:11:00;4.30;;;2.60;;
78796;SDS011;68145;52.514;13.460;2023-04-06T12:13:26;3.97;;;2.30;;
78796;SDS011;68145;52.514;13.460;2023-04-06T12:15:52;5.13;;;2.70;;
78796;SDS011;68145;52.514;13.460;2023-04-06T12:18:18;4.72;;;2.75;;
78796;SDS011;68145;52.514;13.460;2023-04-06T12:20:44;5.55;;;2.80;;
78796;SDS011;68145;52.514;13.460;2023-04-06T12:23:10;4.68;;;2.50;;
78796;SDS011;68145;52.514;13.460;2023-04-06T12:25:38;4.38;;;2.47;;
78796;SDS011;68145;52.514;13.460;2023-04-06T12:28:04;6.45;;;2.65;;
78796;SDS011;68145;52.514;13.460;2023-04-06T12:30:31;5.88;;;4.15;;
78796;SDS011;68145;52.514;13.460;2023-04-06T12:32:57;4.57;;;2.53;;
78796;SDS011;68145;52.514;13.460;2023-04-06T12:35:23;7.53;;;2.55;;
78796;SDS011;68145;52.514;13.460;2023-04-06T12:37:49;4.57;;;2.50;;
78796;SDS011;68145;52.514;13.460;2023-04-06T12:40:15;4.43;;;2.35;;
78796;SDS011;68145;52.514;13.460;2023-04-06T12:42:42;4.93;;;2.40;;
78796;SDS011;68145;52.514;13.460;2023-04-06T12:45:08;5.82;;;2.30;;
78796;SDS011;68145;52.514;13.460;2023-04-06T12:47:34;3.92;;;2.65;;
78796;SDS011;68145;52.514;13.460;2023-04-06T12:50:01;4.70;;;3.33;;
78796;SDS011;68145;52.514;13.460;2023-04-06T12:52:27;4.88;;;2.72;;
78796;SDS011;68145;52.514;13.460;2023-04-06T12:54:56;5.40;;;2.60;;
78796;SDS011;68145;52.514;13.460;2023-04-06T12:57:24;5.70;;;2.80;;
78796;SDS011;68145;52.514;13.460;2023-04-06T13:02:18;6.53;;;3.83;;
78796;SDS011;68145;52.514;13.460;2023-04-06T13:04:45;5.45;;;3.50;;
78796;SDS011;68145;52.514;13.460;2023-04-06T13:07:11;3.90;;;2.70;;
78796;SDS011;68145;52.514;13.460;2023-04-06T13:09:37;5.38;;;2.53;;
78796;SDS011;68145;52.514;13.460;2023-04-06T13:12:05;5.15;;;2.58;;
78796;SDS011;68145;52.514;13.460;2023-04-06T13:14:31;6.47;;;3.13;;
78796;SDS011;68145;52.514;13.460;2023-04-06T13:16:57;4.50;;;2.40;;
78796;SDS011;68145;52.514;13.460;2023-04-06T13:19:23;6.10;;;4.10;;
78796;SDS011;68145;52.514;13.460;2023-04-06T13:21:50;7.60;;;4.53;;
78796;SDS011;68145;52.514;13.460;2023-04-06T13:24:16;5.05;;;3.03;;
78796;SDS011;68145;52.514;13.460;2023-04-06T13:26:42;6.88;;;4.50;;
78796;SDS011;68145;52.514;13.460;2023-04-06T13:29:09;7.20;;;4.18;;
78796;SDS011;68145;52.514;13.460;2023-04-06T13:31:35;7.63;;;4.47;;
78796;SDS011;68145;52.514;13.460;2023-04-06T13:34:01;6.60;;;3.55;;
78796;SDS011;68145;52.514;13.460;2023-04-06T13:36:27;4.20;;;2.60;;
78796;SDS011;68145;52.514;13.460;2023-04-06T13:38:53;5.20;;;2.85;;
78796;SDS011;68145;52.514;13.460;2023-04-06T13:41:20;3.83;;;2.50;;
78796;SDS011;68145;52.514;13.460;2023-04-06T13:43:48;4.82;;;2.85;;
78796;SDS011;68145;52.514;13.460;2023-04-06T13:46:14;3.38;;;2.38;;
78796;SDS011;68145;52.514;13.460;2023-04-06T13:48:41;5.43;;;3.28;;
78796;SDS011;68145;52.514;13.460;2023-04-06T13:51:11;3.90;;;2.80;;
78796;SDS011;68145;52.514;13.460;2023-04-06T13:53:37;3.40;;;2.20;;
78796;SDS011;68145;52.514;13.460;2023-04-06T13:56:03;5.28;;;2.75;;
78796;SDS011;68145;52.514;13.460;2023-04-06T13:58:29;5.45;;;3.00;;
78796;SDS011;68145;52.514;13.460;2023-04-06T14:01:01;4.47;;;2.30;;
78796;SDS011;68145;52.514;13.460;2023-04-06T14:03:28;12.75;;;2.97;;
78796;SDS011;68145;52.514;13.460;2023-04-06T14:05:54;4.75;;;2.60;;
78796;SDS011;68145;52.514;13.460;2023-04-06T14:08:20;4.93;;;3.20;;
78796;SDS011;68145;52.514;13.460;2023-04-06T14:10:46;4.43;;;3.33;;
78796;SDS011;68145;52.514;13.460;2023-04-06T14:13:12;5.50;;;3.47;;
78796;SDS011;68145;52.514;13.460;2023-04-06T14:15:38;5.15;;;3.78;;
78796;SDS011;68145;52.514;13.460;2023-04-06T14:18:04;15.50;;;5.70;;
78796;SDS011;68145;52.514;13.460;2023-04-06T14:20:31;7.47;;;4.85;;
78796;SDS011;68145;52.514;13.460;2023-04-06T14:22:59;6.80;;;3.60;;
78796;SDS011;68145;52.514;13.460;2023-04-06T14:27:51;4.70;;;2.75;;
78796;SDS011;68145;52.514;13.460;2023-04-06T14:30:17;5.35;;;3.05;;
78796;SDS011;68145;52.514;13.460;2023-04-06T14:32:43;6.80;;;3.28;;
78796;SDS011;68145;52.514;13.460;2023-04-06T14:35:09;5.35;;;2.70;;
78796;SDS011;68145;52.514;13.460;2023-04-06T14:37:36;4.00;;;2.67;;
78796;SDS011;68145;52.514;13.460;2023-04-06T14:40:05;5.57;;;3.05;;
78796;SDS011;68145;52.514;13.460;2023-04-06T14:42:31;7.35;;;3.20;;